sensor_id;sensor_type;location;lat;lon;timestamp;P1;durP1;ratioP1;P2;durP2;ratioP2
43580;SDS011;29175;51.030;4.606;2023-03-23T00:01:28;8.32;;;4.00;;
43580;SDS011;29175;51.030;4.606;2023-03-23T00:04:01;9.75;;;3.53;;
43580;SDS011;29175;51.030;4.606;2023-03-23T00:06:28;8.40;;;3.90;;
43580;SDS011;29175;51.030;4.606;2023-03-23T00:08:58;8.02;;;4.60;;
43580;SDS011;29175;51.030;4.606;2023-03-23T00:11:27;7.88;;;3.60;;
43580;SDS011;29175;51.030;4.606;2023-03-23T00:13:55;7.88;;;4.05;;
43580;SDS011;29175;51.030;4.606;2023-03-23T00:16:23;9.05;;;4.45;;
43580;SDS011;29175;51.030;4.606;2023-03-23T00:19:10;9.20;;;4.20;;
43580;SDS011;29175;51.030;4.606;2023-03-23T00:21:40;10.18;;;4.65;;
43580;SDS011;29175;51.030;4.606;2023-03-23T00:26:41;12.05;;;4.55;;
43580;SDS011;29175;51.030;4.606;2023-03-23T00:29:13;9.32;;;4.05;;
43580;SDS011;29175;51.030;4.606;2023-03-23T00:31:44;10.43;;;4.72;;
43580;SDS011;29175;51.030;4.606;2023-03-23T00:34:21;11.48;;;4.85;;
43580;SDS011;29175;51.030;4.606;2023-03-23T00:36:50;9.73;;;3.85;;
43580;SDS011;29175;51.030;4.606;2023-03-23T00:39:18;9.73;;;4.07;;
43580;SDS011;29175;51.030;4.606;2023-03-23T00:41:45;9.25;;;5.05;;
43580;SDS011;29175;51.030;4.606;2023-03-23T00:46:42;9.35;;;4.65;;
43580;SDS011;29175;51.030;4.606;2023-03-23T00:49:10;9.82;;;5.07;;
43580;SDS011;29175;51.030;4.606;2023-03-23T00:51:40;11.77;;;4.93;;
43580;SDS011;29175;51.030;4.606;2023-03-23T00:54:07;11.75;;;5.00;;
43580;SDS011;29175;51.030;4.606;2023-03-23T00:56:34;6.45;;;3.78;;
43580;SDS011;29175;51.030;4.606;2023-03-23T00:59:00;10.35;;;3.78;;
43580;SDS011;29175;51.030;4.606;2023-03-23T01:01:26;11.90;;;5.20;;
43580;SDS011;29175;51.030;4.606;2023-03-23T01:03:52;10.57;;;5.30;;
43580;SDS011;29175;51.030;4.606;2023-03-23T01:06:25;9.55;;;4.97;;
43580;SDS011;29175;51.030;4.606;2023-03-23T01:08:52;8.40;;;3.90;;
43580;SDS011;29175;51.030;4.606;2023-03-23T01:11:19;8.43;;;4.07;;
43580;SDS011;29175;51.030;4.606;2023-03-23T01:13:45;8.52;;;4.32;;
43580;SDS011;29175;51.030;4.606;2023-03-23T01:16:11;9.57;;;3.88;;
43580;SDS011;29175;51.030;4.606;2023-03-23T01:18:38;10.57;;;3.80;;
43580;SDS011;29175;51.030;4.606;2023-03-23T01:21:08;6.07;;;3.38;;
43580;SDS011;29175;51.030;4.606;2023-03-23T01:23:36;11.43;;;4.03;;
43580;SDS011;29175;51.030;4.606;2023-03-23T01:26:06;7.13;;;3.80;;
43580;SDS011;29175;51.030;4.606;2023-03-23T01:28:33;6.95;;;3.80;;
43580;SDS011;29175;51.030;4.606;2023-03-23T01:31:04;10.48;;;4.13;;
43580;SDS011;29175;51.030;4.606;2023-03-23T01:33:33;8.65;;;3.65;;
43580;SDS011;29175;51.030;4.606;2023-03-23T01:36:06;7.82;;;4.25;;
43580;SDS011;29175;51.030;4.606;2023-03-23T01:38:34;9.20;;;3.42;;
43580;SDS011;29175;51.030;4.606;2023-03-23T01:41:00;6.93;;;3.70;;
43580;SDS011;29175;51.030;4.606;2023-03-23T01:43:26;5.85;;;3.67;;
43580;SDS011;29175;51.030;4.606;2023-03-23T01:45:52;12.40;;;4.22;;
43580;SDS011;29175;51.030;4.606;2023-03-23T01:48:20;8.38;;;3.78;;
43580;SDS011;29175;51.030;4.606;2023-03-23T01:50:50;9.25;;;4.55;;
43580;SDS011;29175;51.030;4.606;2023-03-23T01:53:28;8.63;;;3.92;;
43580;SDS011;29175;51.030;4.606;2023-03-23T01:55:58;7.05;;;3.92;;
43580;SDS011;29175;51.030;4.606;2023-03-23T01:58:27;8.45;;;3.72;;
43580;SDS011;29175;51.030;4.606;2023-03-23T02:03:25;8.25;;;4.22;;
43580;SDS011;29175;51.030;4.606;2023-03-23T02:05:53;7.43;;;3.85;;
43580;SDS011;29175;51.030;4.606;2023-03-23T02:08:23;8.50;;;4.28;;
43580;SDS011;29175;51.030;4.606;2023-03-23T02:10:53;10.93;;;4.32;;
43580;SDS011;29175;51.030;4.606;2023-03-23T02:13:19;6.95;;;3.88;;
43580;SDS011;29175;51.030;4.606;2023-03-23T02:15:52;10.05;;;4.10;;
43580;SDS011;29175;51.030;4.606;2023-03-23T02:18:29;8.73;;;4.05;;
43580;SDS011;29175;51.030;4.606;2023-03-23T02:21:13;7.18;;;4.18;;
43580;SDS011;29175;51.030;4.606;2023-03-23T02:27:08;7.72;;;3.78;;
43580;SDS011;29175;51.030;4.606;2023-03-23T02:35:22;10.95;;;4.30;;
43580;SDS011;29175;51.030;4.606;2023-03-23T02:38:06;8.88;;;3.60;;
43580;SDS011;29175;51.030;4.606;2023-03-23T02:40:48;8.57;;;3.50;;
43580;SDS011;29175;51.030;4.606;2023-03-23T02:43:20;9.18;;;3.03;;
43580;SDS011;29175;51.030;4.606;2023-03-23T02:45:49;11.18;;;3.85;;
43580;SDS011;29175;51.030;4.606;2023-03-23T02:48:16;7.50;;;3.78;;
43580;SDS011;29175;51.030;4.606;2023-03-23T02:50:46;5.30;;;2.30;;
43580;SDS011;29175;51.030;4.606;2023-03-23T02:53:16;6.97;;;3.08;;
43580;SDS011;29175;51.030;4.606;2023-03-23T02:55:45;5.80;;;3.10;;
43580;SDS011;29175;51.030;4.606;2023-03-23T02:58:13;9.85;;;2.80;;
43580;SDS011;29175;51.030;4.606;2023-03-23T03:00:39;9.63;;;3.58;;
43580;SDS011;29175;51.030;4.606;2023-03-23T03:03:07;9.60;;;2.55;;
43580;SDS011;29175;51.030;4.606;2023-03-23T03:08:32;5.65;;;2.67;;
43580;SDS011;29175;51.030;4.606;2023-03-23T03:11:19;5.60;;;2.70;;
43580;SDS011;29175;51.030;4.606;2023-03-23T03:13:58;5.35;;;2.10;;
43580;SDS011;29175;51.030;4.606;2023-03-23T03:21:46;6.28;;;2.13;;
43580;SDS011;29175;51.030;4.606;2023-03-23T03:24:15;10.45;;;2.40;;
43580;SDS011;29175;51.030;4.606;2023-03-23T03:26:47;3.42;;;2.10;;
43580;SDS011;29175;51.030;4.606;2023-03-23T03:29:16;6.60;;;2.10;;
43580;SDS011;29175;51.030;4.606;2023-03-23T03:31:45;7.03;;;2.65;;
43580;SDS011;29175;51.030;4.606;2023-03-23T03:34:13;6.18;;;2.55;;
43580;SDS011;29175;51.030;4.606;2023-03-23T03:36:45;7.72;;;2.55;;
43580;SDS011;29175;51.030;4.606;2023-03-23T03:39:13;5.85;;;2.00;;
43580;SDS011;29175;51.030;4.606;2023-03-23T03:41:41;3.40;;;1.90;;
43580;SDS011;29175;51.030;4.606;2023-03-23T03:44:07;8.38;;;2.10;;
43580;SDS011;29175;51.030;4.606;2023-03-23T03:46:33;4.95;;;2.10;;
43580;SDS011;29175;51.030;4.606;2023-03-23T03:49:00;5.93;;;2.15;;
43580;SDS011;29175;51.030;4.606;2023-03-23T03:51:28;8.52;;;2.05;;
43580;SDS011;29175;51.030;4.606;2023-03-23T03:53:55;5.70;;;1.88;;
43580;SDS011;29175;51.030;4.606;2023-03-23T03:56:21;9.23;;;2.40;;
43580;SDS011;29175;51.030;4.606;2023-03-23T03:58:48;6.15;;;2.10;;
43580;SDS011;29175;51.030;4.606;2023-03-23T04:01:15;4.72;;;2.08;;
43580;SDS011;29175;51.030;4.606;2023-03-23T04:03:43;6.47;;;2.00;;
43580;SDS011;29175;51.030;4.606;2023-03-23T04:06:10;3.33;;;1.85;;
43580;SDS011;29175;51.030;4.606;2023-03-23T04:08:37;6.78;;;1.80;;
43580;SDS011;29175;51.030;4.606;2023-03-23T04:11:04;5.22;;;2.15;;
43580;SDS011;29175;51.030;4.606;2023-03-23T04:13:30;4.05;;;2.30;;
43580;SDS011;29175;51.030;4.606;2023-03-23T04:15:56;10.95;;;2.33;;
43580;SDS011;29175;51.030;4.606;2023-03-23T04:18:22;7.93;;;2.08;;
43580;SDS011;29175;51.030;4.606;2023-03-23T04:20:49;10.65;;;2.25;;
43580;SDS011;29175;51.030;4.606;2023-03-23T04:23:16;9.02;;;2.10;;
43580;SDS011;29175;51.030;4.606;2023-03-23T04:25:51;6.57;;;2.85;;
43580;SDS011;29175;51.030;4.606;2023-03-23T04:28:22;10.65;;;2.28;;
43580;SDS011;29175;51.030;4.606;2023-03-23T04:30:53;5.35;;;2.28;;
43580;SDS011;29175;51.030;4.606;2023-03-23T04:33:20;11.77;;;2.40;;
43580;SDS011;29175;51.030;4.606;2023-03-23T04:35:50;6.22;;;2.45;;
43580;SDS011;29175;51.030;4.606;2023-03-23T04:38:18;7.50;;;2.35;;
43580;SDS011;29175;51.030;4.606;2023-03-23T04:40:45;10.27;;;2.45;;
43580;SDS011;29175;51.030;4.606;2023-03-23T04:43:12;10.52;;;2.45;;
43580;SDS011;29175;51.030;4.606;2023-03-23T04:45:39;10.05;;;2.90;;
43580;SDS011;29175;51.030;4.606;2023-03-23T04:48:07;7.53;;;2.47;;
43580;SDS011;29175;51.030;4.606;2023-03-23T04:50:33;6.57;;;2.10;;
43580;SDS011;29175;51.030;4.606;2023-03-23T04:53:00;14.77;;;2.92;;
43580;SDS011;29175;51.030;4.606;2023-03-23T04:55:31;8.30;;;2.38;;
43580;SDS011;29175;51.030;4.606;2023-03-23T04:58:05;12.20;;;2.78;;
43580;SDS011;29175;51.030;4.606;2023-03-23T05:00:32;12.70;;;2.15;;
43580;SDS011;29175;51.030;4.606;2023-03-23T05:02:59;6.65;;;2.83;;
43580;SDS011;29175;51.030;4.606;2023-03-23T05:05:25;11.32;;;2.75;;
43580;SDS011;29175;51.030;4.606;2023-03-23T05:07:54;26.15;;;3.50;;
43580;SDS011;29175;51.030;4.606;2023-03-23T05:10:20;9.55;;;2.20;;
43580;SDS011;29175;51.030;4.606;2023-03-23T05:12:46;11.93;;;2.28;;
43580;SDS011;29175;51.030;4.606;2023-03-23T05:15:12;10.02;;;2.70;;
43580;SDS011;29175;51.030;4.606;2023-03-23T05:17:39;8.52;;;2.47;;
43580;SDS011;29175;51.030;4.606;2023-03-23T05:20:10;10.83;;;2.40;;
43580;SDS011;29175;51.030;4.606;2023-03-23T05:22:43;13.80;;;2.55;;
43580;SDS011;29175;51.030;4.606;2023-03-23T05:25:09;6.75;;;2.10;;
43580;SDS011;29175;51.030;4.606;2023-03-23T05:27:38;5.65;;;2.28;;
43580;SDS011;29175;51.030;4.606;2023-03-23T05:30:07;5.80;;;2.40;;
43580;SDS011;29175;51.030;4.606;2023-03-23T05:32:34;7.20;;;1.88;;
43580;SDS011;29175;51.030;4.606;2023-03-23T05:35:02;9.27;;;2.28;;
43580;SDS011;29175;51.030;4.606;2023-03-23T05:37:29;7.75;;;2.00;;
43580;SDS011;29175;51.030;4.606;2023-03-23T05:39:57;7.38;;;2.00;;
43580;SDS011;29175;51.030;4.606;2023-03-23T05:42:26;6.78;;;2.50;;
43580;SDS011;29175;51.030;4.606;2023-03-23T05:44:52;6.03;;;2.85;;
43580;SDS011;29175;51.030;4.606;2023-03-23T05:47:18;5.90;;;2.75;;
43580;SDS011;29175;51.030;4.606;2023-03-23T05:49:44;10.25;;;2.40;;
43580;SDS011;29175;51.030;4.606;2023-03-23T05:52:09;5.65;;;2.42;;
43580;SDS011;29175;51.030;4.606;2023-03-23T05:54:35;11.73;;;2.85;;
43580;SDS011;29175;51.030;4.606;2023-03-23T05:57:02;8.65;;;2.15;;
43580;SDS011;29175;51.030;4.606;2023-03-23T05:59:28;9.63;;;3.00;;
43580;SDS011;29175;51.030;4.606;2023-03-23T06:01:55;5.40;;;2.33;;
43580;SDS011;29175;51.030;4.606;2023-03-23T06:04:22;11.98;;;2.55;;
43580;SDS011;29175;51.030;4.606;2023-03-23T06:06:50;8.68;;;2.35;;
43580;SDS011;29175;51.030;4.606;2023-03-23T06:09:17;14.18;;;3.55;;
43580;SDS011;29175;51.030;4.606;2023-03-23T06:11:43;6.32;;;2.45;;
43580;SDS011;29175;51.030;4.606;2023-03-23T06:14:09;7.40;;;2.13;;
43580;SDS011;29175;51.030;4.606;2023-03-23T06:16:35;4.35;;;2.35;;
43580;SDS011;29175;51.030;4.606;2023-03-23T06:19:01;14.52;;;2.55;;
43580;SDS011;29175;51.030;4.606;2023-03-23T06:21:29;11.00;;;2.58;;
43580;SDS011;29175;51.030;4.606;2023-03-23T06:23:57;11.75;;;2.47;;
43580;SDS011;29175;51.030;4.606;2023-03-23T06:26:26;10.15;;;2.47;;
43580;SDS011;29175;51.030;4.606;2023-03-23T06:28:56;10.82;;;2.70;;
43580;SDS011;29175;51.030;4.606;2023-03-23T06:31:22;3.97;;;2.50;;
43580;SDS011;29175;51.030;4.606;2023-03-23T06:33:49;11.90;;;2.65;;
43580;SDS011;29175;51.030;4.606;2023-03-23T06:36:15;10.55;;;2.45;;
43580;SDS011;29175;51.030;4.606;2023-03-23T06:38:41;12.15;;;3.78;;
43580;SDS011;29175;51.030;4.606;2023-03-23T06:41:08;13.10;;;3.47;;
43580;SDS011;29175;51.030;4.606;2023-03-23T06:43:33;11.30;;;2.90;;
43580;SDS011;29175;51.030;4.606;2023-03-23T06:46:03;12.43;;;4.50;;
43580;SDS011;29175;51.030;4.606;2023-03-23T06:48:29;16.83;;;3.92;;
43580;SDS011;29175;51.030;4.606;2023-03-23T06:50:55;11.98;;;2.85;;
43580;SDS011;29175;51.030;4.606;2023-03-23T06:53:21;7.03;;;1.92;;
43580;SDS011;29175;51.030;4.606;2023-03-23T06:55:46;2.28;;;1.20;;
43580;SDS011;29175;51.030;4.606;2023-03-23T06:58:12;5.32;;;1.23;;
43580;SDS011;29175;51.030;4.606;2023-03-23T07:00:38;6.63;;;1.17;;
43580;SDS011;29175;51.030;4.606;2023-03-23T07:03:05;4.10;;;1.40;;
43580;SDS011;29175;51.030;4.606;2023-03-23T07:05:32;4.68;;;1.27;;
43580;SDS011;29175;51.030;4.606;2023-03-23T07:08:00;9.15;;;1.83;;
43580;SDS011;29175;51.030;4.606;2023-03-23T07:10:26;19.30;;;2.95;;
43580;SDS011;29175;51.030;4.606;2023-03-23T07:12:52;3.90;;;1.30;;
43580;SDS011;29175;51.030;4.606;2023-03-23T07:15:18;2.45;;;1.33;;
43580;SDS011;29175;51.030;4.606;2023-03-23T07:17:44;6.95;;;1.67;;
43580;SDS011;29175;51.030;4.606;2023-03-23T07:20:10;6.32;;;1.20;;
43580;SDS011;29175;51.030;4.606;2023-03-23T07:22:36;4.35;;;1.40;;
43580;SDS011;29175;51.030;4.606;2023-03-23T07:25:03;7.88;;;1.73;;
43580;SDS011;29175;51.030;4.606;2023-03-23T07:27:29;6.15;;;1.40;;
43580;SDS011;29175;51.030;4.606;2023-03-23T07:29:55;3.45;;;1.35;;
43580;SDS011;29175;51.030;4.606;2023-03-23T07:32:23;3.95;;;1.42;;
43580;SDS011;29175;51.030;4.606;2023-03-23T07:34:49;3.47;;;1.90;;
43580;SDS011;29175;51.030;4.606;2023-03-23T07:37:15;4.45;;;1.45;;
43580;SDS011;29175;51.030;4.606;2023-03-23T07:39:42;3.80;;;1.40;;
43580;SDS011;29175;51.030;4.606;2023-03-23T07:42:08;5.25;;;1.63;;
43580;SDS011;29175;51.030;4.606;2023-03-23T07:44:33;4.85;;;1.90;;
43580;SDS011;29175;51.030;4.606;2023-03-23T07:47:00;8.73;;;2.05;;
43580;SDS011;29175;51.030;4.606;2023-03-23T07:49:27;7.45;;;2.25;;
43580;SDS011;29175;51.030;4.606;2023-03-23T07:51:52;4.40;;;1.65;;
43580;SDS011;29175;51.030;4.606;2023-03-23T07:54:18;6.47;;;1.92;;
43580;SDS011;29175;51.030;4.606;2023-03-23T07:56:44;3.25;;;1.58;;
43580;SDS011;29175;51.030;4.606;2023-03-23T07:59:10;4.10;;;1.40;;
43580;SDS011;29175;51.030;4.606;2023-03-23T08:01:37;4.90;;;1.60;;
43580;SDS011;29175;51.030;4.606;2023-03-23T08:04:04;2.38;;;1.40;;
43580;SDS011;29175;51.030;4.606;2023-03-23T08:06:31;4.80;;;1.70;;
43580;SDS011;29175;51.030;4.606;2023-03-23T08:08:58;2.10;;;1.42;;
43580;SDS011;29175;51.030;4.606;2023-03-23T08:11:25;6.95;;;1.90;;
43580;SDS011;29175;51.030;4.606;2023-03-23T08:13:51;3.03;;;1.58;;
43580;SDS011;29175;51.030;4.606;2023-03-23T08:16:17;4.65;;;1.80;;
43580;SDS011;29175;51.030;4.606;2023-03-23T08:18:45;7.75;;;1.77;;
43580;SDS011;29175;51.030;4.606;2023-03-23T08:21:11;4.07;;;1.40;;
43580;SDS011;29175;51.030;4.606;2023-03-23T08:23:38;4.60;;;1.77;;
43580;SDS011;29175;51.030;4.606;2023-03-23T08:26:04;6.95;;;1.65;;
43580;SDS011;29175;51.030;4.606;2023-03-23T08:28:32;5.60;;;1.52;;
43580;SDS011;29175;51.030;4.606;2023-03-23T08:31:00;5.45;;;2.03;;
43580;SDS011;29175;51.030;4.606;2023-03-23T08:33:32;4.10;;;1.60;;
43580;SDS011;29175;51.030;4.606;2023-03-23T08:35:58;6.65;;;1.88;;
43580;SDS011;29175;51.030;4.606;2023-03-23T08:38:26;8.40;;;2.40;;
43580;SDS011;29175;51.030;4.606;2023-03-23T08:40:56;5.88;;;2.00;;
43580;SDS011;29175;51.030;4.606;2023-03-23T08:43:23;4.03;;;2.03;;
43580;SDS011;29175;51.030;4.606;2023-03-23T08:45:50;4.80;;;2.13;;
43580;SDS011;29175;51.030;4.606;2023-03-23T08:48:16;6.20;;;2.33;;
43580;SDS011;29175;51.030;4.606;2023-03-23T08:50:43;6.13;;;2.08;;
43580;SDS011;29175;51.030;4.606;2023-03-23T08:53:09;8.43;;;2.55;;
43580;SDS011;29175;51.030;4.606;2023-03-23T08:55:34;5.80;;;2.30;;
43580;SDS011;29175;51.030;4.606;2023-03-23T08:58:01;5.43;;;2.15;;
43580;SDS011;29175;51.030;4.606;2023-03-23T09:00:28;7.18;;;2.33;;
43580;SDS011;29175;51.030;4.606;2023-03-23T09:02:54;8.38;;;2.80;;
43580;SDS011;29175;51.030;4.606;2023-03-23T09:05:22;8.23;;;2.22;;
43580;SDS011;29175;51.030;4.606;2023-03-23T09:07:51;12.35;;;2.63;;
43580;SDS011;29175;51.030;4.606;2023-03-23T09:10:18;9.65;;;2.67;;
43580;SDS011;29175;51.030;4.606;2023-03-23T09:12:45;5.95;;;2.30;;
43580;SDS011;29175;51.030;4.606;2023-03-23T09:15:13;6.97;;;2.60;;
43580;SDS011;29175;51.030;4.606;2023-03-23T09:17:47;8.23;;;2.25;;
43580;SDS011;29175;51.030;4.606;2023-03-23T09:20:15;10.40;;;2.72;;
43580;SDS011;29175;51.030;4.606;2023-03-23T09:22:44;8.13;;;2.40;;
43580;SDS011;29175;51.030;4.606;2023-03-23T09:25:12;4.10;;;2.05;;
43580;SDS011;29175;51.030;4.606;2023-03-23T09:27:41;6.33;;;2.07;;
43580;SDS011;29175;51.030;4.606;2023-03-23T09:30:08;3.67;;;1.98;;
43580;SDS011;29175;51.030;4.606;2023-03-23T09:32:37;5.18;;;1.85;;
43580;SDS011;29175;51.030;4.606;2023-03-23T09:35:05;4.82;;;1.80;;
43580;SDS011;29175;51.030;4.606;2023-03-23T09:37:33;10.40;;;2.78;;
43580;SDS011;29175;51.030;4.606;2023-03-23T09:40:00;5.53;;;1.88;;
43580;SDS011;29175;51.030;4.606;2023-03-23T09:42:44;9.48;;;2.13;;
43580;SDS011;29175;51.030;4.606;2023-03-23T09:45:14;6.22;;;2.00;;
43580;SDS011;29175;51.030;4.606;2023-03-23T09:51:01;4.13;;;1.70;;
43580;SDS011;29175;51.030;4.606;2023-03-23T09:53:37;5.45;;;1.77;;
43580;SDS011;29175;51.030;4.606;2023-03-23T09:56:13;3.92;;;1.70;;
43580;SDS011;29175;51.030;4.606;2023-03-23T09:58:50;8.55;;;1.70;;
43580;SDS011;29175;51.030;4.606;2023-03-23T10:01:23;3.13;;;1.50;;
43580;SDS011;29175;51.030;4.606;2023-03-23T10:06:58;3.50;;;1.40;;
43580;SDS011;29175;51.030;4.606;2023-03-23T10:09:29;3.15;;;1.23;;
43580;SDS011;29175;51.030;4.606;2023-03-23T10:17:21;1.80;;;1.30;;
43580;SDS011;29175;51.030;4.606;2023-03-23T10:22:26;4.13;;;1.73;;
43580;SDS011;29175;51.030;4.606;2023-03-23T10:25:01;4.15;;;1.60;;
43580;SDS011;29175;51.030;4.606;2023-03-23T10:33:12;6.38;;;2.20;;
43580;SDS011;29175;51.030;4.606;2023-03-23T10:36:07;5.18;;;2.58;;
43580;SDS011;29175;51.030;4.606;2023-03-23T10:38:58;3.63;;;2.15;;
43580;SDS011;29175;51.030;4.606;2023-03-23T10:41:36;3.38;;;2.05;;
43580;SDS011;29175;51.030;4.606;2023-03-23T10:44:36;7.80;;;2.42;;
43580;SDS011;29175;51.030;4.606;2023-03-23T10:46:58;7.78;;;2.80;;
43580;SDS011;29175;51.030;4.606;2023-03-23T10:52:12;6.82;;;2.22;;
43580;SDS011;29175;51.030;4.606;2023-03-23T10:54:54;10.02;;;2.83;;
43580;SDS011;29175;51.030;4.606;2023-03-23T10:57:41;6.63;;;2.60;;
43580;SDS011;29175;51.030;4.606;2023-03-23T11:00:19;8.60;;;2.95;;
43580;SDS011;29175;51.030;4.606;2023-03-23T11:05:25;8.32;;;2.85;;
43580;SDS011;29175;51.030;4.606;2023-03-23T11:07:57;6.35;;;2.25;;
43580;SDS011;29175;51.030;4.606;2023-03-23T11:10:33;9.90;;;2.58;;
43580;SDS011;29175;51.030;4.606;2023-03-23T11:13:00;5.32;;;2.22;;
43580;SDS011;29175;51.030;4.606;2023-03-23T11:15:32;8.88;;;2.47;;
43580;SDS011;29175;51.030;4.606;2023-03-23T11:18:18;4.55;;;2.33;;
43580;SDS011;29175;51.030;4.606;2023-03-23T11:20:48;11.55;;;2.45;;
43580;SDS011;29175;51.030;4.606;2023-03-23T11:23:28;8.82;;;2.90;;
43580;SDS011;29175;51.030;4.606;2023-03-23T11:26:06;9.65;;;2.80;;
43580;SDS011;29175;51.030;4.606;2023-03-23T11:28:52;12.30;;;2.97;;
43580;SDS011;29175;51.030;4.606;2023-03-23T11:31:23;9.13;;;2.78;;
43580;SDS011;29175;51.030;4.606;2023-03-23T11:33:54;10.82;;;2.65;;
43580;SDS011;29175;51.030;4.606;2023-03-23T11:38:58;13.23;;;2.60;;
43580;SDS011;29175;51.030;4.606;2023-03-23T11:41:24;9.23;;;2.50;;
43580;SDS011;29175;51.030;4.606;2023-03-23T11:46:22;10.85;;;3.45;;
43580;SDS011;29175;51.030;4.606;2023-03-23T11:49:04;9.82;;;2.92;;
43580;SDS011;29175;51.030;4.606;2023-03-23T11:52:29;8.52;;;2.78;;
43580;SDS011;29175;51.030;4.606;2023-03-23T11:55:00;11.93;;;3.25;;
43580;SDS011;29175;51.030;4.606;2023-03-23T11:57:35;16.15;;;2.97;;
43580;SDS011;29175;51.030;4.606;2023-03-23T12:00:05;10.55;;;3.05;;
43580;SDS011;29175;51.030;4.606;2023-03-23T12:19:28;12.98;;;3.78;;
43580;SDS011;29175;51.030;4.606;2023-03-23T12:27:21;9.18;;;2.85;;
43580;SDS011;29175;51.030;4.606;2023-03-23T12:32:36;9.07;;;2.45;;
43580;SDS011;29175;51.030;4.606;2023-03-23T12:35:33;8.48;;;2.80;;
43580;SDS011;29175;51.030;4.606;2023-03-23T12:43:44;8.52;;;3.00;;
43580;SDS011;29175;51.030;4.606;2023-03-23T12:49:29;15.40;;;2.40;;
43580;SDS011;29175;51.030;4.606;2023-03-23T12:57:56;10.43;;;2.40;;
43580;SDS011;29175;51.030;4.606;2023-03-23T13:00:46;17.10;;;6.05;;
43580;SDS011;29175;51.030;4.606;2023-03-23T13:14:21;8.73;;;2.55;;
43580;SDS011;29175;51.030;4.606;2023-03-23T13:17:01;8.40;;;2.58;;
43580;SDS011;29175;51.030;4.606;2023-03-23T13:20:31;7.03;;;2.30;;
43580;SDS011;29175;51.030;4.606;2023-03-23T13:22:46;11.73;;;2.70;;
43580;SDS011;29175;51.030;4.606;2023-03-23T13:25:30;12.50;;;2.33;;
43580;SDS011;29175;51.030;4.606;2023-03-23T13:28:25;7.40;;;2.20;;
43580;SDS011;29175;51.030;4.606;2023-03-23T13:33:36;7.63;;;2.65;;
43580;SDS011;29175;51.030;4.606;2023-03-23T13:36:10;10.07;;;2.35;;
43580;SDS011;29175;51.030;4.606;2023-03-23T13:38:38;12.15;;;2.45;;
43580;SDS011;29175;51.030;4.606;2023-03-23T13:41:14;9.07;;;2.35;;
43580;SDS011;29175;51.030;4.606;2023-03-23T13:43:42;14.45;;;2.85;;
43580;SDS011;29175;51.030;4.606;2023-03-23T13:48:48;7.25;;;2.20;;
43580;SDS011;29175;51.030;4.606;2023-03-23T13:54:05;10.30;;;2.72;;
43580;SDS011;29175;51.030;4.606;2023-03-23T14:01:51;13.98;;;2.85;;
43580;SDS011;29175;51.030;4.606;2023-03-23T14:04:22;10.52;;;2.67;;
43580;SDS011;29175;51.030;4.606;2023-03-23T14:06:56;10.95;;;3.33;;
43580;SDS011;29175;51.030;4.606;2023-03-23T14:09:36;12.80;;;3.15;;
43580;SDS011;29175;51.030;4.606;2023-03-23T14:12:05;11.70;;;2.10;;
43580;SDS011;29175;51.030;4.606;2023-03-23T14:14:55;22.73;;;3.22;;
43580;SDS011;29175;51.030;4.606;2023-03-23T14:17:27;13.05;;;2.83;;
43580;SDS011;29175;51.030;4.606;2023-03-23T14:19:55;6.07;;;2.30;;
43580;SDS011;29175;51.030;4.606;2023-03-23T14:22:25;10.63;;;2.90;;
43580;SDS011;29175;51.030;4.606;2023-03-23T14:24:59;8.90;;;2.55;;
43580;SDS011;29175;51.030;4.606;2023-03-23T14:27:30;14.38;;;2.75;;
43580;SDS011;29175;51.030;4.606;2023-03-23T14:29:59;8.80;;;2.55;;
43580;SDS011;29175;51.030;4.606;2023-03-23T14:32:27;8.88;;;2.40;;
43580;SDS011;29175;51.030;4.606;2023-03-23T14:34:56;4.95;;;2.17;;
43580;SDS011;29175;51.030;4.606;2023-03-23T14:37:22;8.05;;;2.33;;
43580;SDS011;29175;51.030;4.606;2023-03-23T14:39:49;10.40;;;2.15;;
43580;SDS011;29175;51.030;4.606;2023-03-23T14:42:18;5.47;;;2.22;;
43580;SDS011;29175;51.030;4.606;2023-03-23T14:44:48;11.88;;;2.55;;
43580;SDS011;29175;51.030;4.606;2023-03-23T14:47:25;7.80;;;2.22;;
43580;SDS011;29175;51.030;4.606;2023-03-23T14:49:52;9.52;;;2.33;;
43580;SDS011;29175;51.030;4.606;2023-03-23T14:52:21;10.73;;;2.70;;
43580;SDS011;29175;51.030;4.606;2023-03-23T14:54:49;13.00;;;2.90;;
43580;SDS011;29175;51.030;4.606;2023-03-23T14:57:25;8.63;;;2.50;;
43580;SDS011;29175;51.030;4.606;2023-03-23T14:59:53;10.55;;;2.47;;
43580;SDS011;29175;51.030;4.606;2023-03-23T15:02:33;11.35;;;2.97;;
43580;SDS011;29175;51.030;4.606;2023-03-23T15:05:09;10.60;;;2.88;;
43580;SDS011;29175;51.030;4.606;2023-03-23T15:07:40;11.63;;;3.63;;
43580;SDS011;29175;51.030;4.606;2023-03-23T15:10:09;20.75;;;3.42;;
43580;SDS011;29175;51.030;4.606;2023-03-23T15:12:39;15.32;;;3.33;;
43580;SDS011;29175;51.030;4.606;2023-03-23T15:15:21;14.45;;;3.40;;
43580;SDS011;29175;51.030;4.606;2023-03-23T15:17:50;11.35;;;2.83;;
43580;SDS011;29175;51.030;4.606;2023-03-23T15:23:15;11.48;;;2.17;;
43580;SDS011;29175;51.030;4.606;2023-03-23T15:25:51;12.80;;;2.95;;
43580;SDS011;29175;51.030;4.606;2023-03-23T15:28:29;9.82;;;2.25;;
43580;SDS011;29175;51.030;4.606;2023-03-23T15:30:59;10.75;;;2.70;;
43580;SDS011;29175;51.030;4.606;2023-03-23T15:33:33;8.43;;;2.92;;
43580;SDS011;29175;51.030;4.606;2023-03-23T15:36:16;13.10;;;3.05;;
43580;SDS011;29175;51.030;4.606;2023-03-23T15:38:43;8.75;;;2.90;;
43580;SDS011;29175;51.030;4.606;2023-03-23T15:41:28;13.38;;;2.90;;
43580;SDS011;29175;51.030;4.606;2023-03-23T15:43:57;11.38;;;2.70;;
43580;SDS011;29175;51.030;4.606;2023-03-23T15:46:24;11.65;;;3.10;;
43580;SDS011;29175;51.030;4.606;2023-03-23T15:48:53;17.10;;;3.13;;
43580;SDS011;29175;51.030;4.606;2023-03-23T15:51:30;13.83;;;3.53;;
43580;SDS011;29175;51.030;4.606;2023-03-23T15:53:58;14.13;;;3.28;;
43580;SDS011;29175;51.030;4.606;2023-03-23T15:56:24;13.13;;;3.45;;
43580;SDS011;29175;51.030;4.606;2023-03-23T15:58:50;16.90;;;3.55;;
43580;SDS011;29175;51.030;4.606;2023-03-23T16:01:18;16.65;;;3.03;;
43580;SDS011;29175;51.030;4.606;2023-03-23T16:06:17;10.48;;;3.15;;
43580;SDS011;29175;51.030;4.606;2023-03-23T16:08:44;10.82;;;3.33;;
43580;SDS011;29175;51.030;4.606;2023-03-23T16:11:11;10.02;;;3.08;;
43580;SDS011;29175;51.030;4.606;2023-03-23T16:13:38;19.52;;;3.50;;
43580;SDS011;29175;51.030;4.606;2023-03-23T16:16:05;10.82;;;3.30;;
43580;SDS011;29175;51.030;4.606;2023-03-23T16:18:36;11.38;;;4.32;;
43580;SDS011;29175;51.030;4.606;2023-03-23T16:21:02;13.63;;;4.40;;
43580;SDS011;29175;51.030;4.606;2023-03-23T16:23:29;18.60;;;4.43;;
43580;SDS011;29175;51.030;4.606;2023-03-23T16:25:55;12.77;;;3.80;;
43580;SDS011;29175;51.030;4.606;2023-03-23T16:28:20;11.27;;;3.83;;
43580;SDS011;29175;51.030;4.606;2023-03-23T16:30:46;18.58;;;4.03;;
43580;SDS011;29175;51.030;4.606;2023-03-23T16:33:12;13.55;;;4.00;;
43580;SDS011;29175;51.030;4.606;2023-03-23T16:35:38;18.98;;;3.72;;
43580;SDS011;29175;51.030;4.606;2023-03-23T16:38:04;11.82;;;3.35;;
43580;SDS011;29175;51.030;4.606;2023-03-23T16:40:30;15.82;;;4.05;;
43580;SDS011;29175;51.030;4.606;2023-03-23T16:42:57;12.35;;;3.85;;
43580;SDS011;29175;51.030;4.606;2023-03-23T16:45:23;11.95;;;3.63;;
43580;SDS011;29175;51.030;4.606;2023-03-23T16:47:51;12.90;;;3.45;;
43580;SDS011;29175;51.030;4.606;2023-03-23T16:50:19;20.38;;;3.72;;
43580;SDS011;29175;51.030;4.606;2023-03-23T16:52:46;16.42;;;3.85;;
43580;SDS011;29175;51.030;4.606;2023-03-23T16:55:12;16.52;;;3.63;;
43580;SDS011;29175;51.030;4.606;2023-03-23T16:57:41;9.75;;;3.00;;
43580;SDS011;29175;51.030;4.606;2023-03-23T17:00:08;8.40;;;3.25;;
43580;SDS011;29175;51.030;4.606;2023-03-23T17:02:39;10.57;;;3.30;;
43580;SDS011;29175;51.030;4.606;2023-03-23T17:05:06;14.52;;;3.35;;